Terminal Aerodrome Forecast
Issued by NWS Knoxville/Tri Cities, TN

Home | Current Version | Previous Version | Text Only | Print | Product List | Glossary On
Versions: 1 2 3 4 5 6 7 8 9 10 11 12 13 14 15 16 17 18 19 20 21 22 23 24 25 26 27 28
000
FTUS44 KMRX 030532
TAFTRI
TAF
KTRI 030532Z 0306/0406 VRB03KT P6SM FEW050 OVC150
     FM030800 00000KT P6SM VCSH OVC035
     FM031500 VRB03KT 5SM -RA BR OVC025
     FM040100 VRB03KT 3SM -RA BR SCT005 OVC015 WS020/23040KT=

USA.gov is the U.S. government's official web portal to all federal, state and local government web resources and services.